sensor_id;sensor_type;location;lat;lon;timestamp;pressure;altitude;pressure_sealevel;temperature;humidity
52105;BME280;38103;42.776;23.112;2022-12-07T00:00:45;93924.22;;;4.38;100.00
52105;BME280;38103;42.776;23.112;2022-12-07T00:03:10;93923.44;;;4.38;100.00
52105;BME280;38103;42.776;23.112;2022-12-07T00:05:36;93929.88;;;4.42;100.00
52105;BME280;38103;42.776;23.112;2022-12-07T00:08:01;93915.78;;;4.43;100.00
52105;BME280;38103;42.776;23.112;2022-12-07T00:10:27;93924.25;;;4.45;100.00
52105;BME280;38103;42.776;23.112;2022-12-07T00:12:52;93925.84;;;4.46;100.00
52105;BME280;38103;42.776;23.112;2022-12-07T00:15:17;93933.91;;;4.44;100.00
52105;BME280;38103;42.776;23.112;2022-12-07T00:17:43;93931.50;;;4.43;100.00
52105;BME280;38103;42.776;23.112;2022-12-07T00:20:08;93915.34;;;4.32;100.00
52105;BME280;38103;42.776;23.112;2022-12-07T00:22:34;93928.25;;;4.41;100.00
52105;BME280;38103;42.776;23.112;2022-12-07T00:24:59;93929.88;;;4.42;100.00
52105;BME280;38103;42.776;23.112;2022-12-07T00:27:24;93929.66;;;4.36;100.00
52105;BME280;38103;42.776;23.112;2022-12-07T00:29:50;93927.03;;;4.36;100.00
52105;BME280;38103;42.776;23.112;2022-12-07T00:32:15;93925.44;;;4.35;100.00
52105;BME280;38103;42.776;23.112;2022-12-07T00:34:40;93916.13;;;4.26;100.00
52105;BME280;38103;42.776;23.112;2022-12-07T00:37:06;93916.31;;;3.82;100.00
52105;BME280;38103;42.776;23.112;2022-12-07T00:39:31;93913.34;;;3.85;100.00
52105;BME280;38103;42.776;23.112;2022-12-07T00:41:56;93915.81;;;4.00;100.00
52105;BME280;38103;42.776;23.112;2022-12-07T00:44:22;93920.09;;;4.08;100.00
52105;BME280;38103;42.776;23.112;2022-12-07T00:46:47;93881.75;;;3.87;100.00
52105;BME280;38103;42.776;23.112;2022-12-07T00:49:12;93925.16;;;4.17;100.00
52105;BME280;38103;42.776;23.112;2022-12-07T00:51:38;93927.78;;;4.17;100.00
52105;BME280;38103;42.776;23.112;2022-12-07T00:54:03;93916.91;;;4.20;100.00
52105;BME280;38103;42.776;23.112;2022-12-07T00:56:29;93931.81;;;4.19;100.00
52105;BME280;38103;42.776;23.112;2022-12-07T00:59:02;93924.94;;;4.11;100.00
52105;BME280;38103;42.776;23.112;2022-12-07T01:01:31;93926.94;;;4.09;100.00
52105;BME280;38103;42.776;23.112;2022-12-07T01:03:56;93914.56;;;3.89;100.00
52105;BME280;38103;42.776;23.112;2022-12-07T01:06:23;93910.41;;;4.02;100.00
52105;BME280;38103;42.776;23.112;2022-12-07T01:08:49;93912.81;;;4.04;100.00
52105;BME280;38103;42.776;23.112;2022-12-07T01:11:17;93912.16;;;3.95;100.00
52105;BME280;38103;42.776;23.112;2022-12-07T01:13:43;93900.56;;;4.04;100.00
52105;BME280;38103;42.776;23.112;2022-12-07T01:16:11;93902.56;;;4.09;100.00
52105;BME280;38103;42.776;23.112;2022-12-07T01:18:38;93904.75;;;4.05;100.00
52105;BME280;38103;42.776;23.112;2022-12-07T01:21:07;93904.38;;;4.08;100.00
52105;BME280;38103;42.776;23.112;2022-12-07T01:23:35;93907.22;;;4.13;100.00
52105;BME280;38103;42.776;23.112;2022-12-07T01:26:02;93900.59;;;4.18;100.00
52105;BME280;38103;42.776;23.112;2022-12-07T01:28:28;93900.78;;;4.09;100.00
52105;BME280;38103;42.776;23.112;2022-12-07T01:31:02;93893.59;;;3.76;100.00
52105;BME280;38103;42.776;23.112;2022-12-07T01:33:29;93890.28;;;3.60;100.00
52105;BME280;38103;42.776;23.112;2022-12-07T01:36:03;93890.19;;;3.82;100.00
52105;BME280;38103;42.776;23.112;2022-12-07T01:38:30;93872.25;;;3.79;100.00
52105;BME280;38103;42.776;23.112;2022-12-07T01:40:56;93896.28;;;3.96;100.00
52105;BME280;38103;42.776;23.112;2022-12-07T01:43:24;93892.69;;;4.04;100.00
52105;BME280;38103;42.776;23.112;2022-12-07T01:45:50;93846.28;;;3.71;100.00
52105;BME280;38103;42.776;23.112;2022-12-07T01:48:17;93894.06;;;4.00;100.00
52105;BME280;38103;42.776;23.112;2022-12-07T01:50:45;93886.22;;;4.00;100.00
52105;BME280;38103;42.776;23.112;2022-12-07T01:53:14;93881.22;;;4.05;100.00
52105;BME280;38103;42.776;23.112;2022-12-07T01:55:42;93884.06;;;4.10;100.00
52105;BME280;38103;42.776;23.112;2022-12-07T01:58:09;93887.91;;;4.15;100.00
52105;BME280;38103;42.776;23.112;2022-12-07T02:00:37;93884.28;;;4.16;100.00
52105;BME280;38103;42.776;23.112;2022-12-07T02:03:21;93876.59;;;4.07;100.00
52105;BME280;38103;42.776;23.112;2022-12-07T02:05:49;93877.84;;;4.11;100.00
52105;BME280;38103;42.776;23.112;2022-12-07T02:08:16;93831.44;;;3.78;100.00
52105;BME280;38103;42.776;23.112;2022-12-07T02:10:42;93867.53;;;3.96;100.00
52105;BME280;38103;42.776;23.112;2022-12-07T02:34:31;93855.19;;;3.83;100.00
52105;BME280;38103;42.776;23.112;2022-12-07T02:37:00;93851.97;;;3.81;100.00
52105;BME280;38103;42.776;23.112;2022-12-07T02:39:42;93849.13;;;3.76;100.00
52105;BME280;38103;42.776;23.112;2022-12-07T02:42:32;93851.44;;;3.57;100.00
52105;BME280;38103;42.776;23.112;2022-12-07T02:45:00;93856.91;;;3.69;100.00
52105;BME280;38103;42.776;23.112;2022-12-07T02:47:27;93849.88;;;3.63;100.00
52105;BME280;38103;42.776;23.112;2022-12-07T02:49:55;93846.81;;;3.59;100.00
52105;BME280;38103;42.776;23.112;2022-12-07T02:52:20;93843.81;;;3.62;100.00
52105;BME280;38103;42.776;23.112;2022-12-07T02:54:45;93838.00;;;3.67;100.00
52105;BME280;38103;42.776;23.112;2022-12-07T02:59:55;93851.50;;;3.71;100.00
52105;BME280;38103;42.776;23.112;2022-12-07T03:11:09;93776.66;;;3.20;100.00
52105;BME280;38103;42.776;23.112;2022-12-07T03:13:42;93805.88;;;3.31;100.00
52105;BME280;38103;42.776;23.112;2022-12-07T03:16:21;93807.03;;;3.21;100.00
52105;BME280;38103;42.776;23.112;2022-12-07T03:18:52;93839.31;;;3.42;100.00
52105;BME280;38103;42.776;23.112;2022-12-07T03:21:23;93838.91;;;3.45;100.00
52105;BME280;38103;42.776;23.112;2022-12-07T03:23:54;93845.72;;;3.40;100.00
52105;BME280;38103;42.776;23.112;2022-12-07T03:26:24;93836.34;;;3.52;100.00
52105;BME280;38103;42.776;23.112;2022-12-07T03:28:55;93839.03;;;3.66;100.00
52105;BME280;38103;42.776;23.112;2022-12-07T03:31:29;93843.47;;;3.72;100.00
52105;BME280;38103;42.776;23.112;2022-12-07T03:34:19;93844.50;;;3.78;100.00
52105;BME280;38103;42.776;23.112;2022-12-07T03:37:00;93846.72;;;3.81;100.00
52105;BME280;38103;42.776;23.112;2022-12-07T03:40:02;93837.88;;;3.82;100.00
52105;BME280;38103;42.776;23.112;2022-12-07T03:42:30;93834.66;;;3.80;100.00
52105;BME280;38103;42.776;23.112;2022-12-07T03:44:56;93827.41;;;3.75;100.00
52105;BME280;38103;42.776;23.112;2022-12-07T03:48:07;93826.59;;;3.82;100.00
52105;BME280;38103;42.776;23.112;2022-12-07T03:50:31;93806.47;;;3.68;100.00
52105;BME280;38103;42.776;23.112;2022-12-07T03:53:20;93828.00;;;3.84;100.00
52105;BME280;38103;42.776;23.112;2022-12-07T03:55:48;93830.25;;;3.87;100.00
52105;BME280;38103;42.776;23.112;2022-12-07T03:58:17;93837.25;;;3.80;100.00
52105;BME280;38103;42.776;23.112;2022-12-07T04:00:44;93836.88;;;3.83;100.00
52105;BME280;38103;42.776;23.112;2022-12-07T04:03:10;93794.75;;;3.57;100.00
52105;BME280;38103;42.776;23.112;2022-12-07T04:05:37;93831.88;;;3.88;100.00
52105;BME280;38103;42.776;23.112;2022-12-07T04:08:03;93829.88;;;3.90;100.00
52105;BME280;38103;42.776;23.112;2022-12-07T04:10:28;93796.38;;;3.65;100.00
52105;BME280;38103;42.776;23.112;2022-12-07T04:12:53;93838.69;;;3.89;100.00
52105;BME280;38103;42.776;23.112;2022-12-07T04:15:19;93833.03;;;3.79;100.00
52105;BME280;38103;42.776;23.112;2022-12-07T04:17:44;93834.22;;;3.76;100.00
52105;BME280;38103;42.776;23.112;2022-12-07T04:20:10;93834.66;;;3.80;100.00
52105;BME280;38103;42.776;23.112;2022-12-07T04:22:36;93826.81;;;3.80;100.00
52105;BME280;38103;42.776;23.112;2022-12-07T04:25:02;93823.81;;;3.83;100.00
52105;BME280;38103;42.776;23.112;2022-12-07T04:27:28;93830.03;;;3.82;100.00
52105;BME280;38103;42.776;23.112;2022-12-07T04:29:53;93827.78;;;3.79;100.00
52105;BME280;38103;42.776;23.112;2022-12-07T04:32:21;93831.03;;;3.81;100.00
52105;BME280;38103;42.776;23.112;2022-12-07T04:34:46;93834.66;;;3.80;100.00
52105;BME280;38103;42.776;23.112;2022-12-07T04:37:12;93838.66;;;3.76;100.00
52105;BME280;38103;42.776;23.112;2022-12-07T04:39:37;93845.44;;;3.63;100.00
52105;BME280;38103;42.776;23.112;2022-12-07T04:42:02;93835.78;;;3.64;100.00
52105;BME280;38103;42.776;23.112;2022-12-07T04:44:29;93835.81;;;3.71;100.00
52105;BME280;38103;42.776;23.112;2022-12-07T04:46:55;93834.03;;;3.78;100.00
52105;BME280;38103;42.776;23.112;2022-12-07T04:49:21;93835.00;;;3.70;100.00
52105;BME280;38103;42.776;23.112;2022-12-07T04:51:47;93822.44;;;3.45;100.00
52105;BME280;38103;42.776;23.112;2022-12-07T04:54:13;93830.19;;;3.31;100.00
52105;BME280;38103;42.776;23.112;2022-12-07T04:56:39;93830.28;;;3.52;100.00
52105;BME280;38103;42.776;23.112;2022-12-07T04:59:05;93830.75;;;3.62;100.00
52105;BME280;38103;42.776;23.112;2022-12-07T05:01:31;93835.81;;;3.71;100.00
52105;BME280;38103;42.776;23.112;2022-12-07T05:03:57;93833.38;;;3.62;100.00
52105;BME280;38103;42.776;23.112;2022-12-07T05:06:22;93831.75;;;3.61;100.00
52105;BME280;38103;42.776;23.112;2022-12-07T05:08:48;93834.94;;;3.56;100.00
52105;BME280;38103;42.776;23.112;2022-12-07T05:11:14;93830.16;;;3.60;100.00
52105;BME280;38103;42.776;23.112;2022-12-07T05:13:58;93830.06;;;3.46;100.00
52105;BME280;38103;42.776;23.112;2022-12-07T05:16:23;93829.22;;;3.39;100.00
52105;BME280;38103;42.776;23.112;2022-12-07T05:18:49;93836.13;;;3.47;100.00
52105;BME280;38103;42.776;23.112;2022-12-07T05:21:14;93832.47;;;3.41;100.00
52105;BME280;38103;42.776;23.112;2022-12-07T05:23:40;93836.47;;;3.37;100.00
52105;BME280;38103;42.776;23.112;2022-12-07T05:26:05;93849.28;;;3.32;100.00
52105;BME280;38103;42.776;23.112;2022-12-07T05:28:31;93834.13;;;3.20;100.00
52105;BME280;38103;42.776;23.112;2022-12-07T05:30:56;93831.34;;;2.93;100.00
52105;BME280;38103;42.776;23.112;2022-12-07T05:33:21;93839.47;;;3.05;100.00
52105;BME280;38103;42.776;23.112;2022-12-07T05:35:47;93843.88;;;3.05;100.00
52105;BME280;38103;42.776;23.112;2022-12-07T05:38:12;93835.47;;;3.09;100.00
52105;BME280;38103;42.776;23.112;2022-12-07T05:40:38;93841.19;;;2.91;100.00
52105;BME280;38103;42.776;23.112;2022-12-07T05:43:03;93841.03;;;2.99;100.00
52105;BME280;38103;42.776;23.112;2022-12-07T05:45:28;93841.09;;;3.06;100.00
52105;BME280;38103;42.776;23.112;2022-12-07T05:47:54;93835.44;;;3.03;100.00
52105;BME280;38103;42.776;23.112;2022-12-07T05:50:19;93815.81;;;2.85;100.00
52105;BME280;38103;42.776;23.112;2022-12-07T05:52:44;93822.50;;;2.94;100.00
52105;BME280;38103;42.776;23.112;2022-12-07T05:55:10;93823.38;;;3.01;100.00
52105;BME280;38103;42.776;23.112;2022-12-07T05:57:35;93825.75;;;2.96;100.00
52105;BME280;38103;42.776;23.112;2022-12-07T06:00:02;93824.22;;;3.09;100.00
52105;BME280;38103;42.776;23.112;2022-12-07T06:02:27;93820.53;;;2.96;100.00
52105;BME280;38103;42.776;23.112;2022-12-07T06:04:53;93831.44;;;3.07;100.00
52105;BME280;38103;42.776;23.112;2022-12-07T06:07:18;93833.09;;;3.15;100.00
52105;BME280;38103;42.776;23.112;2022-12-07T06:09:43;93838.38;;;3.21;100.00
52105;BME280;38103;42.776;23.112;2022-12-07T06:12:13;93837.59;;;3.28;100.00
52105;BME280;38103;42.776;23.112;2022-12-07T06:14:57;93840.44;;;3.33;100.00
52105;BME280;38103;42.776;23.112;2022-12-07T06:17:23;93840.66;;;3.31;100.00
52105;BME280;38103;42.776;23.112;2022-12-07T06:19:49;93835.19;;;3.26;100.00
52105;BME280;38103;42.776;23.112;2022-12-07T06:22:14;93843.00;;;3.19;100.00
52105;BME280;38103;42.776;23.112;2022-12-07T06:24:41;93797.28;;;3.08;100.00
52105;BME280;38103;42.776;23.112;2022-12-07T06:27:06;93839.47;;;3.41;100.00
52105;BME280;38103;42.776;23.112;2022-12-07T06:29:32;93841.50;;;3.45;100.00
52105;BME280;38103;42.776;23.112;2022-12-07T06:31:57;93846.97;;;3.51;100.00
52105;BME280;38103;42.776;23.112;2022-12-07T06:34:24;93846.22;;;3.57;100.00
52105;BME280;38103;42.776;23.112;2022-12-07T06:36:50;93852.28;;;3.64;100.00
52105;BME280;38103;42.776;23.112;2022-12-07T06:39:22;93854.13;;;3.71;100.00
52105;BME280;38103;42.776;23.112;2022-12-07T06:41:48;93816.47;;;3.58;100.00
52105;BME280;38103;42.776;23.112;2022-12-07T06:44:13;93849.16;;;3.83;100.00
52105;BME280;38103;42.776;23.112;2022-12-07T06:46:39;93846.31;;;3.84;100.00
52105;BME280;38103;42.776;23.112;2022-12-07T06:49:05;93850.34;;;3.87;100.00
52105;BME280;38103;42.776;23.112;2022-12-07T06:51:32;93850.41;;;3.94;100.00
52105;BME280;38103;42.776;23.112;2022-12-07T06:53:57;93800.00;;;3.64;100.00
52105;BME280;38103;42.776;23.112;2022-12-07T06:56:23;93857.06;;;4.03;100.00
52105;BME280;38103;42.776;23.112;2022-12-07T06:58:48;93818.53;;;3.76;100.00
52105;BME280;38103;42.776;23.112;2022-12-07T07:01:16;93859.31;;;4.06;100.00
52105;BME280;38103;42.776;23.112;2022-12-07T07:03:42;93858.09;;;4.09;100.00
52105;BME280;38103;42.776;23.112;2022-12-07T07:06:08;93854.06;;;4.13;100.00
52105;BME280;38103;42.776;23.112;2022-12-07T07:08:34;93837.94;;;3.96;100.00
52105;BME280;38103;42.776;23.112;2022-12-07T07:11:00;93829.88;;;3.97;100.00
52105;BME280;38103;42.776;23.112;2022-12-07T07:13:26;93855.66;;;4.07;100.00
52105;BME280;38103;42.776;23.112;2022-12-07T07:15:52;93843.19;;;4.02;100.00
52105;BME280;38103;42.776;23.112;2022-12-07T07:18:18;93852.06;;;4.08;100.00
52105;BME280;38103;42.776;23.112;2022-12-07T07:20:43;93845.63;;;4.18;100.00
52105;BME280;38103;42.776;23.112;2022-12-07T07:23:09;93848.44;;;4.09;100.00
52105;BME280;38103;42.776;23.112;2022-12-07T07:25:34;93843.22;;;4.09;100.00
52105;BME280;38103;42.776;23.112;2022-12-07T07:27:59;93824.09;;;4.02;100.00
52105;BME280;38103;42.776;23.112;2022-12-07T07:30:25;93850.44;;;4.07;100.00
52105;BME280;38103;42.776;23.112;2022-12-07T07:32:51;93852.88;;;4.16;100.00
52105;BME280;38103;42.776;23.112;2022-12-07T07:35:17;93849.72;;;4.27;100.00
52105;BME280;38103;42.776;23.112;2022-12-07T07:37:42;93810.81;;;4.10;100.00
52105;BME280;38103;42.776;23.112;2022-12-07T07:40:08;93853.75;;;4.36;100.00
52105;BME280;38103;42.776;23.112;2022-12-07T07:42:34;93851.72;;;4.39;100.00
52105;BME280;38103;42.776;23.112;2022-12-07T07:44:59;93843.66;;;4.20;100.00
52105;BME280;38103;42.776;23.112;2022-12-07T07:47:25;93854.34;;;4.25;100.00
52105;BME280;38103;42.776;23.112;2022-12-07T07:49:50;93852.16;;;4.35;100.00
52105;BME280;38103;42.776;23.112;2022-12-07T07:52:16;93846.09;;;4.35;100.00
52105;BME280;38103;42.776;23.112;2022-12-07T07:54:41;93847.72;;;4.50;100.00
52105;BME280;38103;42.776;23.112;2022-12-07T07:57:06;93850.13;;;4.51;100.00
52105;BME280;38103;42.776;23.112;2022-12-07T07:59:32;93851.75;;;4.52;100.00
52105;BME280;38103;42.776;23.112;2022-12-07T08:01:57;93846.91;;;4.42;100.00
52105;BME280;38103;42.776;23.112;2022-12-07T08:04:22;93852.94;;;4.36;100.00
52105;BME280;38103;42.776;23.112;2022-12-07T08:06:48;93839.66;;;4.38;100.00
52105;BME280;38103;42.776;23.112;2022-12-07T08:09:13;93849.31;;;4.37;100.00
52105;BME280;38103;42.776;23.112;2022-12-07T08:11:39;93840.69;;;4.50;100.00
52105;BME280;38103;42.776;23.112;2022-12-07T08:14:04;93847.75;;;4.77;100.00
52105;BME280;38103;42.776;23.112;2022-12-07T08:16:29;93854.63;;;5.12;100.00
52105;BME280;38103;42.776;23.112;2022-12-07T08:18:55;93852.00;;;5.25;100.00
52105;BME280;38103;42.776;23.112;2022-12-07T08:21:21;93858.63;;;5.35;100.00
52105;BME280;38103;42.776;23.112;2022-12-07T08:23:46;93851.75;;;5.47;100.00
52105;BME280;38103;42.776;23.112;2022-12-07T08:26:13;93845.69;;;5.54;100.00
52105;BME280;38103;42.776;23.112;2022-12-07T08:28:39;93854.97;;;5.50;100.00
52105;BME280;38103;42.776;23.112;2022-12-07T08:31:07;93852.53;;;5.55;100.00
52105;BME280;38103;42.776;23.112;2022-12-07T08:33:34;93847.28;;;5.62;100.00
52105;BME280;38103;42.776;23.112;2022-12-07T08:36:05;93847.25;;;5.68;100.00
52105;BME280;38103;42.776;23.112;2022-12-07T08:38:31;93847.25;;;5.68;100.00
52105;BME280;38103;42.776;23.112;2022-12-07T08:40:57;93846.25;;;5.63;100.00
52105;BME280;38103;42.776;23.112;2022-12-07T08:43:23;93839.19;;;5.70;100.00
52105;BME280;38103;42.776;23.112;2022-12-07T08:45:55;93843.28;;;5.45;100.00
52105;BME280;38103;42.776;23.112;2022-12-07T08:48:25;93831.59;;;5.48;100.00
52105;BME280;38103;42.776;23.112;2022-12-07T08:50:50;93816.81;;;5.61;100.00
52105;BME280;38103;42.776;23.112;2022-12-07T08:53:17;93831.84;;;5.92;100.00
52105;BME280;38103;42.776;23.112;2022-12-07T08:55:44;93816.81;;;6.13;100.00
52105;BME280;38103;42.776;23.112;2022-12-07T08:58:10;93814.81;;;6.16;100.00
52105;BME280;38103;42.776;23.112;2022-12-07T09:00:36;93818.59;;;5.74;100.00
52105;BME280;38103;42.776;23.112;2022-12-07T09:03:01;93825.16;;;5.23;100.00
52105;BME280;38103;42.776;23.112;2022-12-07T09:05:26;93818.72;;;5.06;100.00
52105;BME280;38103;42.776;23.112;2022-12-07T09:07:56;93781.84;;;5.00;100.00
52105;BME280;38103;42.776;23.112;2022-12-07T09:10:22;93818.31;;;5.36;100.00
52105;BME280;38103;42.776;23.112;2022-12-07T09:12:48;93815.50;;;5.17;100.00
52105;BME280;38103;42.776;23.112;2022-12-07T09:15:14;93819.50;;;5.27;100.00
52105;BME280;38103;42.776;23.112;2022-12-07T09:17:39;93810.25;;;5.31;100.00
52105;BME280;38103;42.776;23.112;2022-12-07T09:20:05;93806.03;;;5.16;100.00
52105;BME280;38103;42.776;23.112;2022-12-07T09:22:31;93807.63;;;5.10;100.00
52105;BME280;38103;42.776;23.112;2022-12-07T09:24:57;93809.66;;;5.15;100.00
52105;BME280;38103;42.776;23.112;2022-12-07T09:27:24;93809.06;;;5.06;100.00
52105;BME280;38103;42.776;23.112;2022-12-07T09:29:49;93811.09;;;4.90;100.00
52105;BME280;38103;42.776;23.112;2022-12-07T09:32:14;93799.56;;;5.05;100.00
52105;BME280;38103;42.776;23.112;2022-12-07T09:34:40;93802.03;;;4.93;100.00
52105;BME280;38103;42.776;23.112;2022-12-07T09:37:05;93799.00;;;5.10;100.00
52105;BME280;38103;42.776;23.112;2022-12-07T09:39:32;93794.53;;;5.24;100.00
52105;BME280;38103;42.776;23.112;2022-12-07T09:41:58;93742.16;;;4.90;100.00
52105;BME280;38103;42.776;23.112;2022-12-07T09:44:25;93793.75;;;5.03;100.00
52105;BME280;38103;42.776;23.112;2022-12-07T09:46:52;93791.31;;;5.08;100.00
52105;BME280;38103;42.776;23.112;2022-12-07T09:49:23;93788.13;;;4.99;100.00
52105;BME280;38103;42.776;23.112;2022-12-07T09:52:03;93796.19;;;4.77;100.00
52105;BME280;38103;42.776;23.112;2022-12-07T09:54:44;93780.06;;;4.80;100.00
52105;BME280;38103;42.776;23.112;2022-12-07T09:57:11;93777.25;;;5.02;100.00
52105;BME280;38103;42.776;23.112;2022-12-07T09:59:38;93779.22;;;5.00;100.00
52105;BME280;38103;42.776;23.112;2022-12-07T10:02:23;93761.50;;;5.02;100.00
52105;BME280;38103;42.776;23.112;2022-12-07T10:04:49;93751.81;;;5.10;100.00
52105;BME280;38103;42.776;23.112;2022-12-07T10:07:15;93759.94;;;4.81;100.00
52105;BME280;38103;42.776;23.112;2022-12-07T10:09:40;93738.94;;;4.88;100.00
52105;BME280;38103;42.776;23.112;2022-12-07T10:12:11;93764.06;;;5.30;100.00
52105;BME280;38103;42.776;23.112;2022-12-07T10:14:39;93760.28;;;4.98;100.00
52105;BME280;38103;42.776;23.112;2022-12-07T10:20:25;93750.19;;;5.09;100.00
52105;BME280;38103;42.776;23.112;2022-12-07T10:23:00;93760.28;;;5.12;100.00
52105;BME280;38103;42.776;23.112;2022-12-07T10:25:34;93749.41;;;5.15;100.00
52105;BME280;38103;42.776;23.112;2022-12-07T10:30:50;93743.28;;;5.35;100.00
52105;BME280;38103;42.776;23.112;2022-12-07T10:33:30;93741.72;;;5.20;100.00
52105;BME280;38103;42.776;23.112;2022-12-07T10:35:56;93689.38;;;4.93;100.00
52105;BME280;38103;42.776;23.112;2022-12-07T10:38:25;93738.22;;;5.40;100.00
52105;BME280;38103;42.776;23.112;2022-12-07T10:41:12;93721.78;;;5.65;100.00
52105;BME280;38103;42.776;23.112;2022-12-07T10:43:46;93721.78;;;5.65;100.00
52105;BME280;38103;42.776;23.112;2022-12-07T10:51:43;93710.06;;;6.07;100.00
52105;BME280;38103;42.776;23.112;2022-12-07T10:54:43;93701.56;;;6.37;100.00
52105;BME280;38103;42.776;23.112;2022-12-07T11:00:37;93684.91;;;6.51;100.00
52105;BME280;38103;42.776;23.112;2022-12-07T11:03:44;93692.94;;;6.56;100.00
52105;BME280;38103;42.776;23.112;2022-12-07T11:06:34;93682.75;;;6.66;100.00
52105;BME280;38103;42.776;23.112;2022-12-07T11:11:55;93687.81;;;6.87;100.00
52105;BME280;38103;42.776;23.112;2022-12-07T11:14:45;93685.91;;;6.94;100.00
52105;BME280;38103;42.776;23.112;2022-12-07T11:20:00;93687.53;;;7.14;100.00
52105;BME280;38103;42.776;23.112;2022-12-07T11:25:18;93691.63;;;7.10;100.00
52105;BME280;38103;42.776;23.112;2022-12-07T11:30:31;93670.72;;;6.96;100.00
52105;BME280;38103;42.776;23.112;2022-12-07T11:33:15;93667.66;;;6.80;100.00
52105;BME280;38103;42.776;23.112;2022-12-07T11:38:14;93646.16;;;6.90;100.00
52105;BME280;38103;42.776;23.112;2022-12-07T11:40:43;93608.31;;;6.54;100.00
52105;BME280;38103;42.776;23.112;2022-12-07T11:43:26;93645.75;;;6.68;100.00
52105;BME280;38103;42.776;23.112;2022-12-07T11:48:34;93655.16;;;6.76;100.00
52105;BME280;38103;42.776;23.112;2022-12-07T11:51:01;93638.75;;;6.99;100.00
52105;BME280;38103;42.776;23.112;2022-12-07T11:53:29;93645.78;;;7.06;100.00
52105;BME280;38103;42.776;23.112;2022-12-07T11:56:16;93643.44;;;7.16;100.00
52105;BME280;38103;42.776;23.112;2022-12-07T11:58:59;93640.91;;;7.40;100.00
52105;BME280;38103;42.776;23.112;2022-12-07T12:01:45;93636.47;;;7.53;100.00
52105;BME280;38103;42.776;23.112;2022-12-07T12:06:44;93620.44;;;7.42;100.00
52105;BME280;38103;42.776;23.112;2022-12-07T12:14:48;93627.56;;;7.54;100.00
52105;BME280;38103;42.776;23.112;2022-12-07T12:22:45;93614.19;;;7.55;100.00
52105;BME280;38103;42.776;23.112;2022-12-07T12:25:48;93623.19;;;7.78;99.70
52105;BME280;38103;42.776;23.112;2022-12-07T12:28:26;93622.66;;;7.88;99.65
52105;BME280;38103;42.776;23.112;2022-12-07T12:31:13;93601.97;;;7.61;99.54
52105;BME280;38103;42.776;23.112;2022-12-07T12:33:44;93605.03;;;7.58;100.00
52105;BME280;38103;42.776;23.112;2022-12-07T12:44:02;93600.84;;;7.57;99.25
52105;BME280;38103;42.776;23.112;2022-12-07T12:51:43;93587.81;;;7.62;99.13
52105;BME280;38103;42.776;23.112;2022-12-07T12:56:51;93592.41;;;7.79;98.25
52105;BME280;38103;42.776;23.112;2022-12-07T13:01:48;93595.91;;;7.60;98.54
52105;BME280;38103;42.776;23.112;2022-12-07T13:04:27;93597.16;;;7.58;98.26
52105;BME280;38103;42.776;23.112;2022-12-07T13:06:55;93594.13;;;7.42;98.76
52105;BME280;38103;42.776;23.112;2022-12-07T13:09:23;93588.25;;;7.59;98.28
52105;BME280;38103;42.776;23.112;2022-12-07T13:11:58;93591.81;;;7.65;98.11
52105;BME280;38103;42.776;23.112;2022-12-07T13:14:57;93585.88;;;7.69;97.70
52105;BME280;38103;42.776;23.112;2022-12-07T13:19:59;93587.06;;;7.86;97.75
52105;BME280;38103;42.776;23.112;2022-12-07T13:27:44;93589.59;;;8.04;97.61
52105;BME280;38103;42.776;23.112;2022-12-07T13:30:18;93586.38;;;8.02;97.42
52105;BME280;38103;42.776;23.112;2022-12-07T13:32:51;93584.00;;;8.01;97.48
52105;BME280;38103;42.776;23.112;2022-12-07T13:35:27;93579.75;;;8.00;98.28
52105;BME280;38103;42.776;23.112;2022-12-07T13:37:52;93579.94;;;7.86;99.12
52105;BME280;38103;42.776;23.112;2022-12-07T13:40:20;93584.31;;;7.80;100.00
52105;BME280;38103;42.776;23.112;2022-12-07T13:42:45;93574.56;;;7.81;99.86
52105;BME280;38103;42.776;23.112;2022-12-07T13:45:24;93574.91;;;7.85;99.17
52105;BME280;38103;42.776;23.112;2022-12-07T13:48:13;93584.19;;;7.87;99.53
52105;BME280;38103;42.776;23.112;2022-12-07T13:50:40;93590.84;;;8.02;99.13
52105;BME280;38103;42.776;23.112;2022-12-07T13:53:12;93590.41;;;8.05;98.32
52105;BME280;38103;42.776;23.112;2022-12-07T13:55:44;93585.81;;;7.88;98.78
52105;BME280;38103;42.776;23.112;2022-12-07T13:58:10;93585.25;;;7.98;98.21
52105;BME280;38103;42.776;23.112;2022-12-07T14:00:36;93576.03;;;7.65;97.83
52105;BME280;38103;42.776;23.112;2022-12-07T14:03:34;93573.59;;;7.63;98.94
52105;BME280;38103;42.776;23.112;2022-12-07T14:08:30;93575.22;;;7.64;98.35
52105;BME280;38103;42.776;23.112;2022-12-07T14:10:57;93584.59;;;7.60;98.94
52105;BME280;38103;42.776;23.112;2022-12-07T14:15:54;93587.41;;;7.46;99.42
52105;BME280;38103;42.776;23.112;2022-12-07T14:18:46;93577.72;;;7.59;99.47
52105;BME280;38103;42.776;23.112;2022-12-07T14:21:20;93583.88;;;7.53;99.28
52105;BME280;38103;42.776;23.112;2022-12-07T14:24:15;93581.59;;;7.44;99.77
52105;BME280;38103;42.776;23.112;2022-12-07T14:26:41;93582.19;;;7.28;100.00
52105;BME280;38103;42.776;23.112;2022-12-07T14:31:50;93590.66;;;7.30;100.00
52105;BME280;38103;42.776;23.112;2022-12-07T14:34:15;93586.75;;;7.20;100.00
52105;BME280;38103;42.776;23.112;2022-12-07T14:36:41;93593.63;;;7.21;100.00
52105;BME280;38103;42.776;23.112;2022-12-07T14:39:06;93570.13;;;7.08;100.00
52105;BME280;38103;42.776;23.112;2022-12-07T14:41:31;93585.91;;;6.89;100.00
52105;BME280;38103;42.776;23.112;2022-12-07T14:44:15;93587.47;;;6.59;100.00
52105;BME280;38103;42.776;23.112;2022-12-07T14:46:40;93589.25;;;6.40;100.00
52105;BME280;38103;42.776;23.112;2022-12-07T14:49:06;93587.47;;;6.14;100.00
52105;BME280;38103;42.776;23.112;2022-12-07T14:51:32;93588.00;;;5.98;100.00